METAR AND TAF INFORMATION
METAR FOR SBST
ADDS - METARS form results

(1520 UTC 25 May 2019)
Data provider http://aviationweather.gov/metar/data/
 
METAR text: SBST 251500Z 34011KT CAVOK 24/13 Q1015
Conditions at: SBST (SANTOS (BRAZ-AFB, BR) observed 1500 UTC 25 May 2019
Temperature: 24.0°C (75°F)
Dewpoint: 13.0°C (55°F) [RH = 50%]
Pressure (altimeter): 29.97 inches Hg (1015.0 mb)
Winds: from the NNW (340 degrees) at 13 MPH (11 knots; 5.7 m/s)
Visibility: 6 or more miles (10+ km)
Ceiling: ceiling and visibility are OK
Clouds: unknown
Weather: no significant weather observed at this time

 AIRPORT MAP

 RUNWAY INFORMATION
Runway 17 Runway length 4560 ft Runway width 148 ft
Runway elevation 0 ft Runway displaced threshold 0 ft Runway heading 0
Runway 35 Runway length 4560 ft Runway width 148 ft
Runway elevation 0 ft Runway displaced threshold 0 ft Runway heading 0

 AIRPORT FREQUENCIES
Type APP Name SAO PAULO Frequency 119.8 MHZ
Type TWR Name TWR Frequency 118.3 MHZ

 AIRPORT NEAR NAVIGATION AIDS
Type NDB Name Vicente Frequency 360 KHZ
Type NDB Name Santos Frequency 375 KHZ